sensor_id;sensor_type;location;lat;lon;timestamp;pressure;altitude;pressure_sealevel;temperature;humidity
36242;BME280;22283;42.748;12.732;2022-10-16T00:03:21;98563.94;;;12.51;100.00
36242;BME280;22283;42.748;12.732;2022-10-16T00:08:22;98567.16;;;12.44;100.00
36242;BME280;22283;42.748;12.732;2022-10-16T00:13:22;98560.81;;;12.34;100.00
36242;BME280;22283;42.748;12.732;2022-10-16T00:18:24;98570.53;;;12.46;100.00
36242;BME280;22283;42.748;12.732;2022-10-16T00:23:25;98579.97;;;12.50;100.00
36242;BME280;22283;42.748;12.732;2022-10-16T00:28:26;98580.66;;;12.41;100.00
36242;BME280;22283;42.748;12.732;2022-10-16T00:33:27;98589.03;;;12.35;100.00
36242;BME280;22283;42.748;12.732;2022-10-16T00:38:27;98594.19;;;12.25;100.00
36242;BME280;22283;42.748;12.732;2022-10-16T00:43:46;98591.47;;;12.14;100.00
36242;BME280;22283;42.748;12.732;2022-10-16T00:49:02;98602.19;;;12.12;100.00
36242;BME280;22283;42.748;12.732;2022-10-16T00:54:06;98599.53;;;12.12;100.00
36242;BME280;22283;42.748;12.732;2022-10-16T00:59:16;98595.25;;;12.22;100.00
36242;BME280;22283;42.748;12.732;2022-10-16T01:04:19;98602.88;;;12.27;100.00
36242;BME280;22283;42.748;12.732;2022-10-16T01:09:25;98596.28;;;12.33;100.00
36242;BME280;22283;42.748;12.732;2022-10-16T01:25:19;98599.00;;;12.44;100.00
36242;BME280;22283;42.748;12.732;2022-10-16T01:30:26;98593.28;;;12.37;100.00
36242;BME280;22283;42.748;12.732;2022-10-16T01:35:36;98601.19;;;12.26;100.00
36242;BME280;22283;42.748;12.732;2022-10-16T01:40:39;98608.56;;;12.10;100.00
36242;BME280;22283;42.748;12.732;2022-10-16T01:45:42;98606.31;;;12.03;100.00
36242;BME280;22283;42.748;12.732;2022-10-16T01:50:56;98606.78;;;11.97;100.00
36242;BME280;22283;42.748;12.732;2022-10-16T01:55:58;98598.69;;;11.99;100.00
36242;BME280;22283;42.748;12.732;2022-10-16T02:00:59;98607.81;;;12.07;100.00
36242;BME280;22283;42.748;12.732;2022-10-16T02:06:02;98609.34;;;12.23;100.00
36242;BME280;22283;42.748;12.732;2022-10-16T02:11:03;98612.13;;;12.21;100.00
36242;BME280;22283;42.748;12.732;2022-10-16T02:16:04;98606.50;;;12.26;100.00
36242;BME280;22283;42.748;12.732;2022-10-16T02:26:08;98615.63;;;12.22;100.00
36242;BME280;22283;42.748;12.732;2022-10-16T02:31:11;98613.81;;;12.22;100.00
36242;BME280;22283;42.748;12.732;2022-10-16T02:36:13;98600.56;;;12.22;100.00
36242;BME280;22283;42.748;12.732;2022-10-16T02:41:14;98613.97;;;12.08;100.00
36242;BME280;22283;42.748;12.732;2022-10-16T02:46:16;98603.28;;;11.97;100.00
36242;BME280;22283;42.748;12.732;2022-10-16T02:51:18;98615.25;;;12.02;100.00
36242;BME280;22283;42.748;12.732;2022-10-16T02:56:18;98615.38;;;12.01;100.00
36242;BME280;22283;42.748;12.732;2022-10-16T03:01:19;98611.66;;;11.91;100.00
36242;BME280;22283;42.748;12.732;2022-10-16T03:06:19;98613.91;;;11.97;100.00
36242;BME280;22283;42.748;12.732;2022-10-16T03:11:20;98613.03;;;11.84;100.00
36242;BME280;22283;42.748;12.732;2022-10-16T03:16:21;98626.50;;;11.68;100.00
36242;BME280;22283;42.748;12.732;2022-10-16T03:21:21;98626.19;;;11.47;100.00
36242;BME280;22283;42.748;12.732;2022-10-16T03:26:22;98630.44;;;11.37;100.00
36242;BME280;22283;42.748;12.732;2022-10-16T03:31:23;98642.41;;;11.29;100.00
36242;BME280;22283;42.748;12.732;2022-10-16T03:36:23;98644.50;;;11.24;100.00
36242;BME280;22283;42.748;12.732;2022-10-16T03:41:24;98650.41;;;11.15;100.00
36242;BME280;22283;42.748;12.732;2022-10-16T03:46:25;98654.88;;;11.15;100.00
36242;BME280;22283;42.748;12.732;2022-10-16T03:51:25;98647.44;;;11.07;100.00
36242;BME280;22283;42.748;12.732;2022-10-16T03:56:26;98643.28;;;11.03;100.00
36242;BME280;22283;42.748;12.732;2022-10-16T04:01:27;98641.41;;;11.05;100.00
36242;BME280;22283;42.748;12.732;2022-10-16T04:06:27;98647.75;;;11.02;100.00
36242;BME280;22283;42.748;12.732;2022-10-16T04:11:28;98650.41;;;11.02;100.00
36242;BME280;22283;42.748;12.732;2022-10-16T04:16:28;98661.00;;;11.15;100.00
36242;BME280;22283;42.748;12.732;2022-10-16T04:21:29;98662.16;;;10.98;100.00
36242;BME280;22283;42.748;12.732;2022-10-16T04:26:30;98671.31;;;10.93;100.00
36242;BME280;22283;42.748;12.732;2022-10-16T04:31:30;98670.59;;;10.91;100.00
36242;BME280;22283;42.748;12.732;2022-10-16T04:36:31;98667.28;;;10.87;100.00
36242;BME280;22283;42.748;12.732;2022-10-16T04:41:31;98658.81;;;10.82;100.00
36242;BME280;22283;42.748;12.732;2022-10-16T04:46:32;98665.91;;;10.81;100.00
36242;BME280;22283;42.748;12.732;2022-10-16T04:51:33;98670.44;;;10.79;100.00
36242;BME280;22283;42.748;12.732;2022-10-16T04:56:33;98671.41;;;10.78;100.00
36242;BME280;22283;42.748;12.732;2022-10-16T05:01:40;98671.78;;;10.72;100.00
36242;BME280;22283;42.748;12.732;2022-10-16T05:06:41;98663.66;;;10.75;100.00
36242;BME280;22283;42.748;12.732;2022-10-16T05:11:42;98663.25;;;10.81;100.00
36242;BME280;22283;42.748;12.732;2022-10-16T05:16:42;98652.09;;;10.76;100.00
36242;BME280;22283;42.748;12.732;2022-10-16T05:21:43;98658.97;;;10.66;100.00
36242;BME280;22283;42.748;12.732;2022-10-16T05:26:44;98665.94;;;10.67;100.00
36242;BME280;22283;42.748;12.732;2022-10-16T05:31:44;98667.41;;;10.58;100.00
36242;BME280;22283;42.748;12.732;2022-10-16T05:36:45;98669.28;;;10.56;100.00
36242;BME280;22283;42.748;12.732;2022-10-16T05:41:46;98676.66;;;10.66;100.00
36242;BME280;22283;42.748;12.732;2022-10-16T05:46:47;98685.00;;;10.72;100.00
36242;BME280;22283;42.748;12.732;2022-10-16T05:51:48;98682.94;;;10.77;100.00
36242;BME280;22283;42.748;12.732;2022-10-16T05:56:48;98680.94;;;10.81;100.00
36242;BME280;22283;42.748;12.732;2022-10-16T06:01:49;98692.50;;;10.93;100.00
36242;BME280;22283;42.748;12.732;2022-10-16T06:06:49;98703.91;;;11.20;100.00
36242;BME280;22283;42.748;12.732;2022-10-16T06:11:50;98695.84;;;11.62;100.00
36242;BME280;22283;42.748;12.732;2022-10-16T06:16:51;98699.28;;;12.02;100.00
36242;BME280;22283;42.748;12.732;2022-10-16T06:21:51;98702.81;;;12.39;100.00
36242;BME280;22283;42.748;12.732;2022-10-16T06:26:52;98708.22;;;12.74;100.00
36242;BME280;22283;42.748;12.732;2022-10-16T06:31:52;98717.69;;;13.02;100.00
36242;BME280;22283;42.748;12.732;2022-10-16T06:36:53;98707.94;;;13.14;100.00
36242;BME280;22283;42.748;12.732;2022-10-16T06:41:54;98718.84;;;13.22;100.00
36242;BME280;22283;42.748;12.732;2022-10-16T06:47:08;98723.31;;;13.35;100.00
36242;BME280;22283;42.748;12.732;2022-10-16T06:52:08;98732.53;;;13.53;100.00
36242;BME280;22283;42.748;12.732;2022-10-16T06:57:09;98739.38;;;13.80;100.00
36242;BME280;22283;42.748;12.732;2022-10-16T07:02:10;98734.38;;;14.10;100.00
36242;BME280;22283;42.748;12.732;2022-10-16T07:07:11;98741.50;;;14.32;100.00
36242;BME280;22283;42.748;12.732;2022-10-16T07:12:11;98748.69;;;14.65;100.00
36242;BME280;22283;42.748;12.732;2022-10-16T07:17:13;98761.72;;;14.80;100.00
36242;BME280;22283;42.748;12.732;2022-10-16T07:22:13;98761.69;;;15.02;100.00
36242;BME280;22283;42.748;12.732;2022-10-16T07:27:14;98756.88;;;15.28;100.00
36242;BME280;22283;42.748;12.732;2022-10-16T07:32:16;98767.34;;;15.52;100.00
36242;BME280;22283;42.748;12.732;2022-10-16T07:37:17;98775.06;;;15.66;100.00
36242;BME280;22283;42.748;12.732;2022-10-16T07:42:17;98773.78;;;15.82;100.00
36242;BME280;22283;42.748;12.732;2022-10-16T07:47:18;98768.81;;;15.98;100.00
36242;BME280;22283;42.748;12.732;2022-10-16T07:52:19;98776.38;;;16.14;100.00
36242;BME280;22283;42.748;12.732;2022-10-16T07:57:19;98776.16;;;16.27;100.00
36242;BME280;22283;42.748;12.732;2022-10-16T08:02:20;98779.47;;;16.40;100.00
36242;BME280;22283;42.748;12.732;2022-10-16T08:07:21;98785.94;;;16.47;100.00
36242;BME280;22283;42.748;12.732;2022-10-16T08:12:21;98786.22;;;16.75;100.00
36242;BME280;22283;42.748;12.732;2022-10-16T08:17:22;98792.19;;;16.88;97.65
36242;BME280;22283;42.748;12.732;2022-10-16T08:22:22;98797.00;;;16.94;96.57
36242;BME280;22283;42.748;12.732;2022-10-16T08:27:23;98799.28;;;17.08;95.81
36242;BME280;22283;42.748;12.732;2022-10-16T08:32:24;98807.22;;;17.29;94.87
36242;BME280;22283;42.748;12.732;2022-10-16T08:37:24;98811.44;;;17.41;93.16
36242;BME280;22283;42.748;12.732;2022-10-16T08:48:20;98812.50;;;17.79;93.21
36242;BME280;22283;42.748;12.732;2022-10-16T08:53:30;98819.97;;;17.95;92.64
36242;BME280;22283;42.748;12.732;2022-10-16T08:58:31;98810.94;;;17.96;88.98
36242;BME280;22283;42.748;12.732;2022-10-16T09:25:19;98847.63;;;18.52;82.20
36242;BME280;22283;42.748;12.732;2022-10-16T09:30:22;98834.34;;;18.60;84.03
36242;BME280;22283;42.748;12.732;2022-10-16T09:40:39;98835.53;;;18.95;84.90
36242;BME280;22283;42.748;12.732;2022-10-16T09:45:43;98835.13;;;19.17;83.90
36242;BME280;22283;42.748;12.732;2022-10-16T09:50:43;98835.91;;;19.28;82.76
36242;BME280;22283;42.748;12.732;2022-10-16T09:55:48;98834.13;;;19.46;80.47
36242;BME280;22283;42.748;12.732;2022-10-16T10:00:52;98834.56;;;19.59;79.38
36242;BME280;22283;42.748;12.732;2022-10-16T10:05:53;98832.53;;;19.71;78.98
36242;BME280;22283;42.748;12.732;2022-10-16T10:10:54;98826.63;;;19.68;78.01
36242;BME280;22283;42.748;12.732;2022-10-16T10:15:55;98820.38;;;19.77;77.79
36242;BME280;22283;42.748;12.732;2022-10-16T10:21:00;98821.88;;;19.97;76.94
36242;BME280;22283;42.748;12.732;2022-10-16T10:36:36;98820.16;;;20.32;73.11
36242;BME280;22283;42.748;12.732;2022-10-16T11:09:32;98804.53;;;20.87;69.71
36242;BME280;22283;42.748;12.732;2022-10-16T11:14:48;98796.59;;;20.86;68.56
36242;BME280;22283;42.748;12.732;2022-10-16T11:20:25;98788.66;;;21.10;68.10
36242;BME280;22283;42.748;12.732;2022-10-16T11:25:29;98783.31;;;21.27;68.67
36242;BME280;22283;42.748;12.732;2022-10-16T11:30:44;98780.31;;;21.38;66.21
36242;BME280;22283;42.748;12.732;2022-10-16T11:41:22;98775.81;;;21.39;65.14
36242;BME280;22283;42.748;12.732;2022-10-16T11:46:25;98774.63;;;21.49;64.15
36242;BME280;22283;42.748;12.732;2022-10-16T11:56:37;98760.53;;;21.55;64.53
36242;BME280;22283;42.748;12.732;2022-10-16T12:01:42;98767.25;;;21.76;61.56
36242;BME280;22283;42.748;12.732;2022-10-16T12:07:00;98772.00;;;21.74;64.24
36242;BME280;22283;42.748;12.732;2022-10-16T12:12:03;98763.72;;;21.75;60.37
36242;BME280;22283;42.748;12.732;2022-10-16T12:17:24;98770.97;;;21.83;60.24
36242;BME280;22283;42.748;12.732;2022-10-16T12:22:28;98766.75;;;21.89;60.51
36242;BME280;22283;42.748;12.732;2022-10-16T12:27:31;98759.88;;;21.86;62.00
36242;BME280;22283;42.748;12.732;2022-10-16T12:32:37;98760.53;;;21.96;59.67
36242;BME280;22283;42.748;12.732;2022-10-16T12:37:39;98763.53;;;21.93;58.88
36242;BME280;22283;42.748;12.732;2022-10-16T12:42:40;98760.19;;;21.83;60.42
36242;BME280;22283;42.748;12.732;2022-10-16T12:47:48;98756.81;;;21.97;60.08
36242;BME280;22283;42.748;12.732;2022-10-16T12:52:49;98763.19;;;22.13;61.15
36242;BME280;22283;42.748;12.732;2022-10-16T13:03:48;98758.50;;;21.98;62.09
36242;BME280;22283;42.748;12.732;2022-10-16T13:29:31;98752.97;;;21.75;61.88
36242;BME280;22283;42.748;12.732;2022-10-16T13:34:32;98743.34;;;21.81;62.01
36242;BME280;22283;42.748;12.732;2022-10-16T13:39:33;98755.13;;;21.96;60.74
36242;BME280;22283;42.748;12.732;2022-10-16T13:44:42;98744.22;;;21.90;60.13
36242;BME280;22283;42.748;12.732;2022-10-16T13:49:43;98764.72;;;22.07;60.59
36242;BME280;22283;42.748;12.732;2022-10-16T13:54:44;98758.00;;;22.11;60.20
36242;BME280;22283;42.748;12.732;2022-10-16T13:59:45;98756.81;;;21.97;59.96
36242;BME280;22283;42.748;12.732;2022-10-16T14:04:46;98766.25;;;21.93;60.66
36242;BME280;22283;42.748;12.732;2022-10-16T14:09:49;98750.44;;;21.82;61.04
36242;BME280;22283;42.748;12.732;2022-10-16T14:14:52;98759.50;;;21.73;62.39
36242;BME280;22283;42.748;12.732;2022-10-16T14:19:56;98758.84;;;21.63;63.13
36242;BME280;22283;42.748;12.732;2022-10-16T14:24:58;98760.53;;;21.55;64.00
36242;BME280;22283;42.748;12.732;2022-10-16T14:30:16;98768.25;;;21.50;63.75
36242;BME280;22283;42.748;12.732;2022-10-16T14:35:25;98770.25;;;21.48;64.13
36242;BME280;22283;42.748;12.732;2022-10-16T14:40:29;98756.81;;;21.56;65.73
36242;BME280;22283;42.748;12.732;2022-10-16T14:45:32;98760.84;;;21.69;65.23
36242;BME280;22283;42.748;12.732;2022-10-16T14:50:34;98764.56;;;21.68;65.56
36242;BME280;22283;42.748;12.732;2022-10-16T14:55:36;98767.59;;;21.65;65.76
36242;BME280;22283;42.748;12.732;2022-10-16T15:00:37;98777.34;;;21.66;64.62
36242;BME280;22283;42.748;12.732;2022-10-16T15:05:38;98771.63;;;21.69;66.14
36242;BME280;22283;42.748;12.732;2022-10-16T15:10:39;98772.81;;;21.74;66.27
36242;BME280;22283;42.748;12.732;2022-10-16T15:15:45;98774.00;;;21.80;64.37
36242;BME280;22283;42.748;12.732;2022-10-16T15:20:49;98781.06;;;21.81;63.41
36242;BME280;22283;42.748;12.732;2022-10-16T15:25:52;98778.53;;;21.79;63.34
36242;BME280;22283;42.748;12.732;2022-10-16T15:30:55;98777.38;;;21.74;63.80
36242;BME280;22283;42.748;12.732;2022-10-16T15:35:57;98778.03;;;21.59;64.11
36242;BME280;22283;42.748;12.732;2022-10-16T15:40:57;98776.16;;;21.52;64.61
36242;BME280;22283;42.748;12.732;2022-10-16T15:46:03;98781.34;;;21.37;66.69
36242;BME280;22283;42.748;12.732;2022-10-16T15:51:07;98785.63;;;21.22;67.75
36242;BME280;22283;42.748;12.732;2022-10-16T15:56:09;98777.84;;;21.02;68.72
36242;BME280;22283;42.748;12.732;2022-10-16T16:01:12;98776.59;;;20.80;70.34
36242;BME280;22283;42.748;12.732;2022-10-16T16:06:13;98786.72;;;20.52;74.93
36242;BME280;22283;42.748;12.732;2022-10-16T16:11:15;98795.44;;;20.10;78.48
36242;BME280;22283;42.748;12.732;2022-10-16T16:16:17;98794.13;;;19.71;84.30
36242;BME280;22283;42.748;12.732;2022-10-16T16:21:18;98799.50;;;19.25;90.26
36242;BME280;22283;42.748;12.732;2022-10-16T16:26:24;98808.59;;;18.87;96.04
36242;BME280;22283;42.748;12.732;2022-10-16T16:31:28;98813.75;;;18.61;99.30
36242;BME280;22283;42.748;12.732;2022-10-16T16:36:30;98817.91;;;18.36;100.00
36242;BME280;22283;42.748;12.732;2022-10-16T16:41:31;98815.13;;;18.28;100.00
36242;BME280;22283;42.748;12.732;2022-10-16T16:46:33;98816.69;;;18.21;100.00
36242;BME280;22283;42.748;12.732;2022-10-16T16:51:34;98826.13;;;18.05;100.00
36242;BME280;22283;42.748;12.732;2022-10-16T16:56:35;98835.31;;;17.93;100.00
36242;BME280;22283;42.748;12.732;2022-10-16T17:01:35;98851.22;;;17.85;100.00
36242;BME280;22283;42.748;12.732;2022-10-16T17:06:37;98848.13;;;17.70;100.00
36242;BME280;22283;42.748;12.732;2022-10-16T17:11:37;98852.13;;;17.35;100.00
36242;BME280;22283;42.748;12.732;2022-10-16T17:16:39;98862.09;;;17.24;100.00
36242;BME280;22283;42.748;12.732;2022-10-16T17:21:40;98857.56;;;17.14;100.00
36242;BME280;22283;42.748;12.732;2022-10-16T17:26:41;98877.25;;;17.13;100.00
36242;BME280;22283;42.748;12.732;2022-10-16T17:31:48;98883.94;;;16.98;100.00
36242;BME280;22283;42.748;12.732;2022-10-16T17:36:49;98886.75;;;16.87;100.00
36242;BME280;22283;42.748;12.732;2022-10-16T17:41:50;98882.03;;;16.58;100.00
36242;BME280;22283;42.748;12.732;2022-10-16T17:46:52;98891.69;;;16.50;100.00
36242;BME280;22283;42.748;12.732;2022-10-16T17:51:53;98915.06;;;16.36;100.00
36242;BME280;22283;42.748;12.732;2022-10-16T17:56:54;98907.72;;;16.29;100.00
36242;BME280;22283;42.748;12.732;2022-10-16T18:01:54;98910.13;;;16.32;100.00
36242;BME280;22283;42.748;12.732;2022-10-16T18:06:55;98908.59;;;16.18;100.00
36242;BME280;22283;42.748;12.732;2022-10-16T18:11:56;98918.72;;;16.03;100.00
36242;BME280;22283;42.748;12.732;2022-10-16T18:17:00;98927.50;;;15.94;100.00
36242;BME280;22283;42.748;12.732;2022-10-16T18:22:01;98936.47;;;16.04;100.00
36242;BME280;22283;42.748;12.732;2022-10-16T18:27:01;98933.59;;;15.96;100.00
36242;BME280;22283;42.748;12.732;2022-10-16T18:32:02;98939.91;;;15.84;100.00
36242;BME280;22283;42.748;12.732;2022-10-16T18:37:03;98944.44;;;15.61;100.00
36242;BME280;22283;42.748;12.732;2022-10-16T18:42:03;98951.09;;;15.44;100.00
36242;BME280;22283;42.748;12.732;2022-10-16T18:47:04;98960.91;;;15.32;100.00
36242;BME280;22283;42.748;12.732;2022-10-16T18:52:04;98966.88;;;15.36;100.00
36242;BME280;22283;42.748;12.732;2022-10-16T18:57:06;98974.00;;;15.24;100.00
36242;BME280;22283;42.748;12.732;2022-10-16T19:02:08;98958.66;;;15.05;100.00
36242;BME280;22283;42.748;12.732;2022-10-16T19:07:09;98972.09;;;15.15;100.00
36242;BME280;22283;42.748;12.732;2022-10-16T19:12:10;98972.31;;;15.00;100.00
36242;BME280;22283;42.748;12.732;2022-10-16T19:17:11;98992.03;;;14.87;100.00
36242;BME280;22283;42.748;12.732;2022-10-16T19:22:12;98986.44;;;14.79;100.00
36242;BME280;22283;42.748;12.732;2022-10-16T19:27:27;98989.34;;;14.75;100.00
36242;BME280;22283;42.748;12.732;2022-10-16T19:32:27;98986.59;;;14.53;100.00
36242;BME280;22283;42.748;12.732;2022-10-16T19:37:28;98992.09;;;14.39;100.00
36242;BME280;22283;42.748;12.732;2022-10-16T19:42:28;99002.25;;;14.34;100.00
36242;BME280;22283;42.748;12.732;2022-10-16T19:47:30;99013.63;;;14.36;100.00
36242;BME280;22283;42.748;12.732;2022-10-16T19:52:32;99020.03;;;14.33;100.00
36242;BME280;22283;42.748;12.732;2022-10-16T19:57:35;99018.81;;;14.26;100.00
36242;BME280;22283;42.748;12.732;2022-10-16T20:02:36;99022.25;;;14.15;100.00
36242;BME280;22283;42.748;12.732;2022-10-16T20:07:37;99019.72;;;14.01;100.00
36242;BME280;22283;42.748;12.732;2022-10-16T20:12:37;99035.31;;;13.94;100.00
36242;BME280;22283;42.748;12.732;2022-10-16T20:17:38;99037.69;;;13.86;100.00
36242;BME280;22283;42.748;12.732;2022-10-16T20:22:39;99030.47;;;13.75;100.00
36242;BME280;22283;42.748;12.732;2022-10-16T20:27:40;99037.69;;;13.73;100.00
36242;BME280;22283;42.748;12.732;2022-10-16T20:32:40;99046.84;;;13.69;100.00
36242;BME280;22283;42.748;12.732;2022-10-16T20:37:41;99045.81;;;13.59;100.00
36242;BME280;22283;42.748;12.732;2022-10-16T20:42:44;99045.81;;;13.59;100.00
36242;BME280;22283;42.748;12.732;2022-10-16T20:47:44;99054.00;;;13.56;100.00
36242;BME280;22283;42.748;12.732;2022-10-16T20:52:45;99051.34;;;13.56;100.00
36242;BME280;22283;42.748;12.732;2022-10-16T20:57:46;99054.75;;;13.58;100.00
36242;BME280;22283;42.748;12.732;2022-10-16T21:02:49;99055.19;;;13.52;100.00
36242;BME280;22283;42.748;12.732;2022-10-16T21:07:50;99059.00;;;13.61;100.00
36242;BME280;22283;42.748;12.732;2022-10-16T21:12:52;99071.53;;;13.71;100.00
36242;BME280;22283;42.748;12.732;2022-10-16T21:17:53;99070.28;;;13.51;100.00
36242;BME280;22283;42.748;12.732;2022-10-16T21:22:54;99066.88;;;13.37;100.00
36242;BME280;22283;42.748;12.732;2022-10-16T21:27:55;99078.47;;;13.36;100.00
36242;BME280;22283;42.748;12.732;2022-10-16T21:32:55;99071.38;;;13.23;100.00
36242;BME280;22283;42.748;12.732;2022-10-16T21:37:56;99074.72;;;13.13;100.00
36242;BME280;22283;42.748;12.732;2022-10-16T21:42:57;99080.47;;;13.19;100.00
36242;BME280;22283;42.748;12.732;2022-10-16T21:47:57;99082.56;;;13.14;100.00
36242;BME280;22283;42.748;12.732;2022-10-16T21:52:58;99063.00;;;13.02;100.00
36242;BME280;22283;42.748;12.732;2022-10-16T21:57:59;99075.81;;;13.36;100.00
36242;BME280;22283;42.748;12.732;2022-10-16T22:03:00;99095.91;;;13.40;100.00
36242;BME280;22283;42.748;12.732;2022-10-16T22:08:01;99096.63;;;13.16;100.00
36242;BME280;22283;42.748;12.732;2022-10-16T22:13:01;99103.16;;;12.98;100.00
36242;BME280;22283;42.748;12.732;2022-10-16T22:18:02;99100.19;;;12.90;100.00
36242;BME280;22283;42.748;12.732;2022-10-16T22:23:03;99105.91;;;12.84;100.00
36242;BME280;22283;42.748;12.732;2022-10-16T22:28:03;99102.34;;;13.10;100.00
36242;BME280;22283;42.748;12.732;2022-10-16T22:33:04;99096.81;;;13.13;100.00
36242;BME280;22283;42.748;12.732;2022-10-16T22:38:05;99111.28;;;13.09;100.00
36242;BME280;22283;42.748;12.732;2022-10-16T22:43:06;99112.94;;;12.97;100.00
36242;BME280;22283;42.748;12.732;2022-10-16T22:48:06;99112.28;;;12.81;100.00
36242;BME280;22283;42.748;12.732;2022-10-16T22:53:07;99113.78;;;12.85;100.00
36242;BME280;22283;42.748;12.732;2022-10-16T22:58:08;99115.75;;;12.69;100.00
36242;BME280;22283;42.748;12.732;2022-10-16T23:03:09;99118.88;;;12.48;100.00
36242;BME280;22283;42.748;12.732;2022-10-16T23:08:11;99118.75;;;12.50;100.00
36242;BME280;22283;42.748;12.732;2022-10-16T23:13:12;99118.94;;;12.47;100.00
36242;BME280;22283;42.748;12.732;2022-10-16T23:18:13;99122.56;;;12.46;100.00
36242;BME280;22283;42.748;12.732;2022-10-16T23:23:14;99121.81;;;12.44;100.00
36242;BME280;22283;42.748;12.732;2022-10-16T23:28:14;99124.84;;;12.38;100.00
36242;BME280;22283;42.748;12.732;2022-10-16T23:33:15;99125.06;;;12.35;100.00
36242;BME280;22283;42.748;12.732;2022-10-16T23:38:16;99126.78;;;12.36;100.00
36242;BME280;22283;42.748;12.732;2022-10-16T23:43:16;99126.19;;;12.30;100.00
36242;BME280;22283;42.748;12.732;2022-10-16T23:48:17;99123.50;;;12.18;100.00
36242;BME280;22283;42.748;12.732;2022-10-16T23:53:18;99120.00;;;12.03;100.00
36242;BME280;22283;42.748;12.732;2022-10-16T23:58:19;99139.28;;;12.19;100.00
